Time;durP1;ratioP1;P1;durP2;ratioP2;P2;SDS_P1;SDS_P2;PMS_P1;PMS_P2;Temp;Humidity;BMP_temperature;BMP_pressure;BME280_temperature;BME280_humidity;BME280_pressure;Samples;Min_cycle;Max_cycle;Signal;HPM_P1;HPM_P2
2022/06/28 00:01:58;;;;;;;2.70;1.27;;;;;;;25.23;62.81;98988.22;6072354;23;20168;-85
2022/06/28 00:04:25;;;;;;;2.57;1.40;;;;;;;25.27;62.24;98993.03;6098040;23;20152;-85
2022/06/28 00:06:51;;;;;;;3.90;1.67;;;;;;;25.27;62.09;98986.84;6098349;23;20157;-84
2022/06/28 00:09:16;;;;;;;2.50;1.40;;;;;;;25.26;62.05;98990.56;6072521;23;20192;-85
2022/06/28 00:11:42;;;;;;;3.63;1.53;;;;;;;25.23;62.14;98982.84;6072276;23;20645;-85
2022/06/28 00:16:53;;;;;;;3.70;1.60;;;;;;;24.94;63.18;98981.69;6096736;23;20220;-85
2022/06/28 00:19:20;;;;;;;2.73;1.60;;;;;;;24.93;63.38;98982.69;6071987;23;20180;-85
2022/06/28 00:21:48;;;;;;;2.63;1.23;;;;;;;24.86;63.68;98984.41;6097516;23;20175;-84
2022/06/28 00:24:15;;;;;;;3.10;1.50;;;;;;;24.78;64.37;98986.22;6072177;23;20163;-84
2022/06/28 00:26:46;;;;;;;2.93;1.60;;;;;;;24.72;64.44;98974.34;6072088;23;20171;-84
2022/06/28 00:29:13;;;;;;;4.07;1.97;;;;;;;24.65;64.99;98975.22;6097881;23;20168;-85
2022/06/28 00:31:38;;;;;;;3.70;1.80;;;;;;;24.62;65.01;98968.38;6072342;23;20223;-84
2022/06/28 00:34:04;;;;;;;4.90;2.00;;;;;;;24.54;65.61;98965.72;6071957;23;20160;-84
2022/06/28 00:36:32;;;;;;;2.83;1.67;;;;;;;24.53;66.02;98966.72;6069460;23;20494;-84
2022/06/28 00:38:58;;;;;;;3.03;1.87;;;;;;;24.47;65.56;98978.16;6071630;23;20468;-84
2022/06/28 00:41:25;;;;;;;3.47;1.80;;;;;;;24.11;67.35;98966.19;6096862;23;20163;-84
2022/06/28 00:43:51;;;;;;;3.03;1.70;;;;;;;24.08;67.75;98963.81;6096570;23;20152;-84
2022/06/28 00:46:17;;;;;;;2.50;1.67;;;;;;;24.07;67.22;98976.38;6096708;23;20159;-84
2022/06/28 00:48:43;;;;;;;3.47;1.80;;;;;;;24.14;66.47;98976.53;6096518;23;20181;-84
2022/06/28 00:51:10;;;;;;;4.43;1.90;;;;;;;24.28;66.27;98978.53;6096494;23;20246;-84
2022/06/28 00:53:35;;;;;;;2.80;1.57;;;;;;;24.26;66.23;98970.69;6095963;23;20163;-84
2022/06/28 00:56:02;;;;;;;5.20;2.10;;;;;;;24.38;66.09;98968.44;6096499;23;20152;-85
2022/06/28 00:58:29;;;;;;;3.03;1.80;;;;;;;24.43;65.69;98966.09;6096194;23;20149;-85
2022/06/28 01:00:54;;;;;;;4.90;1.50;;;;;;;24.41;65.53;98968.09;6096573;23;20164;-84
2022/06/28 01:03:22;;;;;;;3.10;1.70;;;;;;;24.26;66.02;98970.69;6072010;23;20160;-84
2022/06/28 01:05:50;;;;;;;2.53;1.33;;;;;;;24.06;67.09;98966.66;6096990;23;20153;-84
2022/06/28 01:08:16;;;;;;;2.70;1.70;;;;;;;24.03;67.45;98966.97;6071638;23;20650;-84
2022/06/28 01:10:42;;;;;;;7.80;2.10;;;;;;;24.16;66.78;98961.16;6071859;23;20168;-84
2022/06/28 01:13:09;;;;;;;3.57;1.90;;;;;;;24.17;67.08;98971.69;6071896;23;20156;-84
2022/06/28 01:15:37;;;;;;;2.83;1.60;;;;;;;24.08;67.26;98961.13;6071746;23;20648;-85
2022/06/28 01:18:04;;;;;;;2.77;1.40;;;;;;;24.03;67.92;98963.50;6097197;23;20182;-84
2022/06/28 01:20:32;;;;;;;2.83;1.70;;;;;;;23.81;69.20;98965.00;6071464;23;20168;-84
2022/06/28 01:22:58;;;;;;;4.43;2.20;;;;;;;23.82;69.20;98962.16;6096546;23;20235;-84
2022/06/28 01:25:25;;;;;;;3.13;1.80;;;;;;;23.63;70.11;98964.34;6097157;23;20165;-84
2022/06/28 01:27:55;;;;;;;4.53;1.67;;;;;;;23.56;70.91;98966.84;6096353;23;20272;-84
2022/06/28 01:30:22;;;;;;;3.20;1.50;;;;;;;23.74;69.75;98964.84;6096547;23;20153;-84
2022/06/28 01:32:50;;;;;;;3.33;1.70;;;;;;;23.70;70.19;98974.22;6072021;23;20160;-84
2022/06/28 01:35:17;;;;;;;8.70;1.63;;;;;;;23.71;70.33;98962.53;6098142;23;20156;-84
2022/06/28 01:37:44;;;;;;;3.67;1.70;;;;;;;23.71;70.63;98965.19;6098904;23;20145;-84
2022/06/28 01:40:11;;;;;;;3.17;1.97;;;;;;;23.77;69.96;98964.50;6098975;23;20156;-84
2022/06/28 01:42:37;;;;;;;2.87;1.80;;;;;;;23.91;69.36;98971.03;6098449;23;20152;-84
2022/06/28 01:45:04;;;;;;;2.83;1.80;;;;;;;23.93;69.16;98973.50;6073654;23;20164;-85
2022/06/28 01:47:44;;;;;;;3.00;1.87;;;;;;;23.95;68.76;98976.88;6098345;23;20180;-84
2022/06/28 01:50:11;;;;;;;4.33;1.93;;;;;;;24.07;67.92;98975.53;6098846;23;20144;-85
2022/06/28 01:52:40;;;;;;;4.07;1.73;;;;;;;24.01;68.08;98973.50;6073324;23;20187;-84
2022/06/28 01:55:07;;;;;;;3.00;1.63;;;;;;;24.13;67.79;98978.41;6098524;23;20182;-85
2022/06/28 01:57:34;;;;;;;3.50;1.90;;;;;;;24.21;66.82;98974.88;6098689;23;20159;-85
2022/06/28 02:00:00;;;;;;;5.00;1.70;;;;;;;24.27;66.61;98976.84;6073290;23;20153;-85
2022/06/28 02:02:26;;;;;;;6.90;2.27;;;;;;;24.30;66.43;98968.47;6098283;23;20159;-85
2022/06/28 02:04:51;;;;;;;3.53;1.83;;;;;;;24.27;65.81;98974.16;6073119;23;20157;-85
2022/06/28 02:07:18;;;;;;;3.50;1.90;;;;;;;24.27;65.78;98971.47;6097987;23;20486;-85
2022/06/28 02:09:45;;;;;;;3.63;1.87;;;;;;;24.27;65.74;98966.13;6098341;23;20153;-85
2022/06/28 02:12:11;;;;;;;4.27;1.90;;;;;;;23.97;66.49;98973.03;6073146;23;20221;-84
2022/06/28 02:14:37;;;;;;;4.30;2.17;;;;;;;23.83;67.06;98963.84;6097598;23;20204;-85
2022/06/28 02:17:04;;;;;;;6.77;2.40;;;;;;;23.94;66.63;98969.84;6098038;23;20240;-85
2022/06/28 02:19:31;;;;;;;3.93;1.80;;;;;;;23.85;66.52;98969.00;6073033;23;20461;-84
2022/06/28 02:21:58;;;;;;;6.57;2.00;;;;;;;23.68;67.16;98967.34;6098094;23;20156;-85
2022/06/28 02:24:25;;;;;;;4.53;2.10;;;;;;;23.67;67.78;98974.53;6098157;23;20647;-85
2022/06/28 02:26:51;;;;;;;4.23;2.03;;;;;;;23.66;67.61;98966.69;6098048;23;20172;-84
2022/06/28 02:29:17;;;;;;;5.47;2.27;;;;;;;23.61;67.73;98975.19;6072930;23;20176;-84
2022/06/28 02:31:43;;;;;;;3.13;1.80;;;;;;;23.56;67.36;98957.97;6072970;23;20160;-85
2022/06/28 02:40:21;;;;;;;6.07;2.30;;;;;;;23.72;66.81;98955.28;6098520;23;20149;-85
2022/06/28 02:42:24;;;;;;;4.80;2.03;;;;;;;23.49;66.46;98954.28;6097767;23;20200;-85
2022/06/28 02:44:50;;;;;;;4.70;2.53;;;;;;;23.07;67.74;98949.03;6073054;23;20152;-85
2022/06/28 02:47:16;;;;;;;4.43;2.10;;;;;;;23.21;66.99;98959.09;6097818;23;20164;-84
2022/06/28 02:49:41;;;;;;;5.47;2.27;;;;;;;23.42;66.30;98954.16;6098281;23;20156;-84
2022/06/28 02:52:08;;;;;;;5.00;2.60;;;;;;;23.39;66.54;98958.97;6097810;23;20477;-84
2022/06/28 02:54:34;;;;;;;4.47;2.03;;;;;;;23.36;66.52;98965.47;6097601;23;20152;-84
2022/06/28 02:57:00;;;;;;;5.00;2.70;;;;;;;23.28;66.71;98962.78;6097904;23;20156;-84
2022/06/28 02:59:26;;;;;;;3.80;2.30;;;;;;;23.34;66.27;98961.28;6072740;23;20149;-84
2022/06/28 03:01:52;;;;;;;4.13;2.37;;;;;;;23.44;65.68;98968.19;6097860;23;20152;-84
2022/06/28 03:04:18;;;;;;;4.50;2.60;;;;;;;23.46;65.81;98976.88;6097904;23;20163;-84
2022/06/28 03:06:45;;;;;;;10.20;2.83;;;;;;;23.42;65.43;98980.06;6097690;23;20154;-84
2022/06/28 03:09:12;;;;;;;6.67;2.97;;;;;;;23.24;65.87;98980.97;6097602;23;20185;-84
2022/06/28 03:11:37;;;;;;;4.63;2.20;;;;;;;23.27;66.09;98976.34;6097587;23;20153;-84
2022/06/28 03:14:03;;;;;;;10.00;2.20;;;;;;;23.32;66.01;98982.88;6097362;23;20588;-84
2022/06/28 03:16:28;;;;;;;3.73;2.10;;;;;;;23.34;65.52;98988.03;6097379;23;20148;-84
2022/06/28 03:18:55;;;;;;;3.17;1.87;;;;;;;23.56;64.84;98993.59;6072907;23;20181;-84
2022/06/28 03:21:22;;;;;;;3.97;2.10;;;;;;;23.41;66.02;98989.91;6073180;23;20219;-84
2022/06/28 03:23:49;;;;;;;3.93;2.43;;;;;;;23.48;65.45;98990.09;6097784;23;20176;-84
2022/06/28 03:26:15;;;;;;;5.77;2.23;;;;;;;23.40;65.32;98992.75;6072308;23;20585;-84
2022/06/28 03:28:42;;;;;;;5.33;2.27;;;;;;;23.26;65.97;98996.88;6097335;23;20184;-84
2022/06/28 03:31:07;;;;;;;3.30;2.10;;;;;;;23.41;65.83;98994.41;6097388;23;20155;-84
2022/06/28 03:33:33;;;;;;;4.30;2.37;;;;;;;23.45;65.27;98996.63;6097504;23;20156;-84
2022/06/28 03:36:00;;;;;;;3.77;1.90;;;;;;;23.53;65.14;98991.25;6072413;23;20161;-84
2022/06/28 03:38:26;;;;;;;6.80;2.33;;;;;;;23.59;63.85;99001.31;6097092;23;20145;-85
2022/06/28 03:40:53;;;;;;;4.40;2.37;;;;;;;23.73;63.81;99005.16;6097253;23;20152;-84
2022/06/28 03:43:18;;;;;;;4.00;2.07;;;;;;;23.77;63.51;99006.47;6072221;23;20617;-84
2022/06/28 03:45:45;;;;;;;9.43;2.13;;;;;;;23.73;63.66;98997.97;6097398;23;20149;-84
2022/06/28 03:48:11;;;;;;;4.73;2.17;;;;;;;23.69;63.82;98999.28;6097346;23;20184;-84
2022/06/28 03:50:37;;;;;;;5.70;2.90;;;;;;;23.69;63.80;98996.63;6096991;23;20156;-84
2022/06/28 03:53:04;;;;;;;4.10;1.97;;;;;;;23.59;63.83;98995.94;6072225;23;20652;-84
2022/06/28 03:55:29;;;;;;;3.90;2.30;;;;;;;23.83;63.22;99000.47;6072130;23;20162;-84
2022/06/28 03:57:55;;;;;;;3.90;2.20;;;;;;;23.62;63.77;99003.66;6071873;23;20191;-84
2022/06/28 04:00:20;;;;;;;3.67;2.20;;;;;;;23.51;64.29;99001.28;6071910;23;20164;-84
2022/06/28 04:02:47;;;;;;;3.80;2.33;;;;;;;23.63;63.83;98999.97;6097281;23;20569;-84
2022/06/28 04:05:13;;;;;;;6.70;2.50;;;;;;;23.65;63.36;99008.69;6097369;23;20153;-84
2022/06/28 04:07:40;;;;;;;4.00;2.47;;;;;;;23.74;62.66;99009.53;6071847;23;20625;-84
2022/06/28 04:10:06;;;;;;;4.97;2.70;;;;;;;23.91;61.90;99011.19;6072442;23;20242;-84
2022/06/28 04:12:32;;;;;;;5.43;2.50;;;;;;;23.87;62.77;99007.19;6071777;23;20223;-84
2022/06/28 04:14:57;;;;;;;4.17;2.33;;;;;;;23.94;62.19;98996.63;6097106;23;20200;-84
2022/06/28 04:17:23;;;;;;;4.47;2.70;;;;;;;24.09;61.29;99006.50;6071895;23;20156;-85
2022/06/28 04:19:49;;;;;;;4.83;2.07;;;;;;;24.04;61.77;99014.19;6097037;23;20160;-85
2022/06/28 04:22:29;;;;;;;11.80;2.60;;;;;;;23.99;62.10;99004.97;6097086;23;20149;-84
